Time;durP1;ratioP1;P1;durP2;ratioP2;P2;SDS_P1;SDS_P2;PMS_P1;PMS_P2;Temp;Humidity;BMP_temperature;BMP_pressure;BME280_temperature;BME280_humidity;BME280_pressure;Samples;Min_cycle;Max_cycle;Signal;HPM_P1;HPM_P2
2022/04/09 00:01:30;;;;;;;;;;;;;;;;;;5094246;28;805;-68
2022/04/09 00:03:56;;;;;;;;;;;;;;;;;;5075675;28;1658;-68
2022/04/09 00:06:23;;;;;;;;;;;;;;;;;;5093825;28;1122;-68
2022/04/09 00:08:49;;;;;;;;;;;;;;;;;;5093723;28;845;-68
2022/04/09 00:11:15;;;;;;;;;;;;;;;;;;5093488;28;940;-67
2022/04/09 00:13:43;;;;;;;;;;;;;;;;;;5093360;28;1400;-67
2022/04/09 00:16:09;;;;;;;;;;;;;;;;;;5093563;28;960;-66
2022/04/09 00:18:35;;;;;;;;;;;;;;;;;;5093486;28;1910;-67
2022/04/09 00:21:02;;;;;;;;;;;;;;;;;;5093625;28;889;-67
2022/04/09 00:23:28;;;;;;;;;;;;;;;;;;5083197;28;1475;-66
2022/04/09 00:25:54;;;;;;;;;;;;;;;;;;5073815;28;944;-68
2022/04/09 00:28:20;;;;;;;;;;;;;;;;;;5073000;28;1126;-69
2022/04/09 00:30:48;;;;;;;;;;;;;;;;;;5073131;28;818;-68
2022/04/09 00:33:14;;;;;;;;;;;;;;;;;;5071530;28;984;-68
2022/04/09 00:35:40;;;;;;;;;;;;;;;;;;5073074;28;1494;-67
2022/04/09 00:38:06;;;;;;;;;;;;;;;;;;5054677;28;1979;-68
2022/04/09 00:40:32;;;;;;;;;;;;;;;;;;5072883;28;933;-68
2022/04/09 00:42:59;;;;;;;;;;;;;;;;;;5073221;28;1036;-69
2022/04/09 00:45:25;;;;;;;;;;;;;;;;;;5072853;28;1367;-69
2022/04/09 00:47:53;;;;;;;;;;;;;;;;;;5072343;28;787;-67
2022/04/09 00:50:19;;;;;;;;;;;;;;;;;;5072843;28;862;-68
2022/04/09 00:52:49;;;;;;;;;;;;;;;;;;5072532;28;1155;-68
2022/04/09 00:55:18;;;;;;;;;;;;;;;;;;5054319;28;2395;-68
2022/04/09 00:57:45;;;;;;;;;;;;;;;;;;5054076;28;945;-68
2022/04/09 01:00:12;;;;;;;;;;;;;;;;;;5072648;28;1981;-68
2022/04/09 01:02:39;;;;;;;;;;;;;;;;;;5054468;28;1700;-67
2022/04/09 01:05:07;;;;;;;;;;;;;;;;;;5072221;28;1287;-66
2022/04/09 01:07:33;;;;;;;;;;;;;;;;;;5053710;28;1250;-67
2022/04/09 01:09:59;;;;;;;;;;;;;;;;;;5072523;28;1063;-68
2022/04/09 01:12:26;;;;;;;;;;;;;;;;;;5072121;28;1122;-68
2022/04/09 01:14:52;;;;;;;;;;;;;;;;;;5053994;28;1324;-69
2022/04/09 01:17:18;;;;;;;;;;;;;;;;;;5054078;28;1853;-68
2022/04/09 01:19:45;;;;;;;;;;;;;;;;;;5054337;28;1910;-68
2022/04/09 01:22:12;;;;;;;;;;;;;;;;;;5072132;28;1064;-68
2022/04/09 01:24:38;;;;;;;;;;;;;;;;;;5053993;28;1306;-68
2022/04/09 01:27:06;;;;;;;;;;;;;;;;;;5053335;28;1153;-68
2022/04/09 01:29:36;;;;;;;;;;;;;;;;;;5054089;28;1502;-68
2022/04/09 01:32:02;;;;;;;;;;;;;;;;;;5053998;28;1478;-68
2022/04/09 01:34:29;;;;;;;;;;;;;;;;;;5072064;28;1325;-66
2022/04/09 01:36:56;;;;;;;;;;;;;;;;;;5053752;28;1215;-69
2022/04/09 01:39:25;;;;;;;;;;;;;;;;;;5054091;28;1918;-67
2022/04/09 01:41:51;;;;;;;;;;;;;;;;;;5053589;28;1325;-66
2022/04/09 01:44:17;;;;;;;;;;;;;;;;;;5071055;28;1418;-67
2022/04/09 01:46:45;;;;;;;;;;;;;;;;;;5053691;28;881;-66
2022/04/09 01:49:12;;;;;;;;;;;;;;;;;;5053441;28;1163;-67
2022/04/09 01:51:39;;;;;;;;;;;;;;;;;;5053476;28;1494;-67
2022/04/09 01:54:05;;;;;;;;;;;;;;;;;;5053548;28;1313;-67
2022/04/09 01:56:33;;;;;;;;;;;;;;;;;;5053451;28;1340;-66
2022/04/09 01:58:59;;;;;;;;;;;;;;;;;;5071525;28;1913;-68
2022/04/09 02:01:26;;;;;;;;;;;;;;;;;;5052669;28;966;-66
2022/04/09 02:03:52;;;;;;;;;;;;;;;;;;5052867;28;1400;-67
2022/04/09 02:06:19;;;;;;;;;;;;;;;;;;5052859;28;1082;-67
2022/04/09 02:08:46;;;;;;;;;;;;;;;;;;5053477;28;1693;-67
2022/04/09 02:11:12;;;;;;;;;;;;;;;;;;5053392;28;1372;-67
2022/04/09 02:13:40;;;;;;;;;;;;;;;;;;5053200;28;1309;-66
2022/04/09 02:16:07;;;;;;;;;;;;;;;;;;5052997;28;893;-67
2022/04/09 02:18:33;;;;;;;;;;;;;;;;;;5052864;28;1968;-67
2022/04/09 02:20:59;;;;;;;;;;;;;;;;;;5071117;28;1487;-67
2022/04/09 02:23:25;;;;;;;;;;;;;;;;;;5060401;28;1483;-65
2022/04/09 02:25:52;;;;;;;;;;;;;;;;;;5091521;28;656;-67
2022/04/09 02:28:18;;;;;;;;;;;;;;;;;;5072986;28;1293;-67
2022/04/09 02:30:46;;;;;;;;;;;;;;;;;;5072967;28;1202;-67
2022/04/09 02:33:22;;;;;;;;;;;;;;;;;;5072972;28;1509;-67
2022/04/09 02:35:48;;;;;;;;;;;;;;;;;;5090335;28;1355;-66
2022/04/09 02:38:14;;;;;;;;;;;;;;;;;;5090521;28;790;-67
2022/04/09 02:40:40;;;;;;;;;;;;;;;;;;5090755;28;1973;-68
2022/04/09 02:43:08;;;;;;;;;;;;;;;;;;5072945;28;1147;-68
2022/04/09 02:45:35;;;;;;;;;;;;;;;;;;5072979;28;1323;-67
2022/04/09 02:48:06;;;;;;;;;;;;;;;;;;5072539;28;1347;-67
2022/04/09 02:50:34;;;;;;;;;;;;;;;;;;5072706;28;1443;-66
2022/04/09 02:53:01;;;;;;;;;;;;;;;;;;5072382;28;1379;-67
2022/04/09 02:55:27;;;;;;;;;;;;;;;;;;5071674;28;1277;-67
2022/04/09 02:57:54;;;;;;;;;;;;;;;;;;5072627;28;1403;-66
2022/04/09 03:00:24;;;;;;;;;;;;;;;;;;5072345;28;1910;-67
2022/04/09 03:02:52;;;;;;;;;;;;;;;;;;5072346;28;1393;-67
2022/04/09 03:05:25;;;;;;;;;;;;;;;;;;5072468;28;1369;-66
2022/04/09 03:07:51;;;;;;;;;;;;;;;;;;5090344;28;940;-67
2022/04/09 03:10:17;;;;;;;;;;;;;;;;;;5072477;28;1632;-66
2022/04/09 03:12:44;;;;;;;;;;;;;;;;;;5072029;28;1075;-67
2022/04/09 03:15:10;;;;;;;;;;;;;;;;;;5090794;28;1388;-67
2022/04/09 03:17:37;;;;;;;;;;;;;;;;;;5072161;28;1606;-67
2022/04/09 03:20:05;;;;;;;;;;;;;;;;;;5072864;28;1975;-67
2022/04/09 03:22:34;;;;;;;;;;;;;;;;;;5071690;28;1464;-66
2022/04/09 03:25:01;;;;;;;;;;;;;;;;;;5072296;28;1497;-67
2022/04/09 03:27:30;;;;;;;;;;;;;;;;;;5071931;28;1274;-67
2022/04/09 03:29:58;;;;;;;;;;;;;;;;;;5071926;28;994;-66
2022/04/09 03:32:25;;;;;;;;;;;;;;;;;;5071664;28;1313;-67
2022/04/09 03:34:53;;;;;;;;;;;;;;;;;;5071899;28;1335;-67
2022/04/09 03:37:22;;;;;;;;;;;;;;;;;;5071768;28;1350;-66
2022/04/09 03:39:52;;;;;;;;;;;;;;;;;;5072084;28;1934;-67
2022/04/09 03:42:19;;;;;;;;;;;;;;;;;;5071724;28;1306;-67
2022/04/09 03:44:47;;;;;;;;;;;;;;;;;;5071806;28;1337;-67
2022/04/09 03:47:13;;;;;;;;;;;;;;;;;;5089950;28;896;-67
2022/04/09 03:49:39;;;;;;;;;;;;;;;;;;5071697;28;1390;-67
2022/04/09 03:52:06;;;;;;;;;;;;;;;;;;5071993;28;1364;-67
2022/04/09 03:54:35;;;;;;;;;;;;;;;;;;5072025;28;1470;-68
2022/04/09 03:57:04;;;;;;;;;;;;;;;;;;5071447;28;1912;-67
2022/04/09 03:59:43;;;;;;;;;;;;;;;;;;5081250;22;3643;-67
2022/04/09 04:02:09;;;;;;;;;;;;;;;;;;5071568;28;1209;-69
2022/04/09 04:04:37;;;;;;;;;;;;;;;;;;5071162;28;991;-69
2022/04/09 04:07:03;;;;;;;;;;;;;;;;;;5072152;28;1155;-67
2022/04/09 04:09:30;;;;;;;;;;;;;;;;;;5071722;28;1616;-68
2022/04/09 04:11:58;;;;;;;;;;;;;;;;;;5055546;28;1533;-68
2022/04/09 04:14:29;;;;;;;;;;;;;;;;;;5055346;28;1628;-68
2022/04/09 04:16:56;;;;;;;;;;;;;;;;;;5054852;28;1194;-67
2022/04/09 04:19:22;;;;;;;;;;;;;;;;;;5071886;28;1909;-68
2022/04/09 04:21:51;;;;;;;;;;;;;;;;;;5055260;28;1284;-69
2022/04/09 04:24:17;;;;;;;;;;;;;;;;;;5054696;28;1135;-68
2022/04/09 04:26:44;;;;;;;;;;;;;;;;;;5054409;28;1456;-67
2022/04/09 04:29:17;;;;;;;;;;;;;;;;;;5073112;28;1328;-68
2022/04/09 04:31:45;;;;;;;;;;;;;;;;;;5072758;28;798;-70
2022/04/09 04:34:12;;;;;;;;;;;;;;;;;;5054979;28;1489;-69
2022/04/09 04:36:42;;;;;;;;;;;;;;;;;;5053921;28;1314;-69
2022/04/09 04:39:08;;;;;;;;;;;;;;;;;;5054591;28;1362;-70
2022/04/09 04:41:34;;;;;;;;;;;;;;;;;;5054182;28;1991;-70
2022/04/09 04:44:01;;;;;;;;;;;;;;;;;;5054524;28;1331;-69
2022/04/09 04:46:36;;;;;;;;;;;;;;;;;;5053851;28;1672;-69
2022/04/09 04:49:04;;;;;;;;;;;;;;;;;;5054862;28;1494;-68
2022/04/09 04:51:32;;;;;;;;;;;;;;;;;;5054457;28;1371;-68
2022/04/09 04:53:58;;;;;;;;;;;;;;;;;;5054463;28;727;-69
2022/04/09 04:56:25;;;;;;;;;;;;;;;;;;5053974;28;1046;-69
2022/04/09 04:58:55;;;;;;;;;;;;;;;;;;5053775;28;1542;-67
2022/04/09 05:01:21;;;;;;;;;;;;;;;;;;5071398;28;1922;-69
2022/04/09 05:03:53;;;;;;;;;;;;;;;;;;5054221;28;1617;-69
2022/04/09 05:06:36;;;;;;;;;;;;;;;;;;5053827;28;1196;-69
2022/04/09 05:09:04;;;;;;;;;;;;;;;;;;5071878;28;1590;-68
2022/04/09 05:11:50;;;;;;;;;;;;;;;;;;5054176;28;1614;-69
2022/04/09 05:14:20;;;;;;;;;;;;;;;;;;5053160;28;1451;-69
2022/04/09 05:16:53;;;;;;;;;;;;;;;;;;5053820;28;1706;-68
2022/04/09 05:19:20;;;;;;;;;;;;;;;;;;5070934;28;1610;-68
2022/04/09 05:21:53;;;;;;;;;;;;;;;;;;5053875;28;1486;-69
2022/04/09 05:24:22;;;;;;;;;;;;;;;;;;5053711;28;1693;-68
2022/04/09 05:26:48;;;;;;;;;;;;;;;;;;5071384;28;1520;-69
2022/04/09 05:29:15;;;;;;;;;;;;;;;;;;5054416;28;1438;-68
2022/04/09 05:31:43;;;;;;;;;;;;;;;;;;5052713;28;2168;-69
2022/04/09 05:34:09;;;;;;;;;;;;;;;;;;5053839;28;1733;-68
2022/04/09 05:36:36;;;;;;;;;;;;;;;;;;5055901;28;1560;-70
2022/04/09 05:39:04;;;;;;;;;;;;;;;;;;5061790;28;1414;-69
2022/04/09 05:41:33;;;;;;;;;;;;;;;;;;5059005;28;1914;-69
2022/04/09 05:43:59;;;;;;;;;;;;;;;;;;5059748;28;1302;-69
2022/04/09 05:46:26;;;;;;;;;;;;;;;;;;5053477;28;1337;-69
2022/04/09 05:48:52;;;;;;;;;;;;;;;;;;5054215;28;1733;-70
2022/04/09 05:51:19;;;;;;;;;;;;;;;;;;5053713;28;1424;-70
2022/04/09 05:53:49;;;;;;;;;;;;;;;;;;5053527;28;1178;-71
2022/04/09 05:56:18;;;;;;;;;;;;;;;;;;5047765;28;1885;-69
2022/04/09 05:58:44;;;;;;;;;;;;;;;;;;5054298;28;1298;-68
2022/04/09 06:01:13;;;;;;;;;;;;;;;;;;5050908;28;1926;-69
2022/04/09 06:03:40;;;;;;;;;;;;;;;;;;5050087;28;1312;-69
2022/04/09 06:06:07;;;;;;;;;;;;;;;;;;5062189;28;1547;-70
2022/04/09 06:08:53;;;;;;;;;;;;;;;;;;5052963;28;1595;-68
2022/04/09 06:11:35;;;;;;;;;;;;;;;;;;5053201;28;1591;-69
2022/04/09 06:14:07;;;;;;;;;;;;;;;;;;5046153;28;1586;-70
2022/04/09 06:16:35;;;;;;;;;;;;;;;;;;5030301;28;921;-69
2022/04/09 06:19:03;;;;;;;;;;;;;;;;;;5044644;28;1488;-69
2022/04/09 06:21:30;;;;;;;;;;;;;;;;;;5051421;28;1899;-69
2022/04/09 06:23:57;;;;;;;;;;;;;;;;;;5050447;28;1571;-69
2022/04/09 06:26:25;;;;;;;;;;;;;;;;;;5050092;28;1567;-68
2022/04/09 06:28:52;;;;;;;;;;;;;;;;;;5050850;28;1359;-68
2022/04/09 06:31:18;;;;;;;;;;;;;;;;;;5050378;28;1543;-69
2022/04/09 06:33:45;;;;;;;;;;;;;;;;;;5050780;28;1185;-69
2022/04/09 06:36:13;;;;;;;;;;;;;;;;;;5050198;28;1555;-70
2022/04/09 06:38:40;;;;;;;;;;;;;;;;;;5050516;28;1440;-68
2022/04/09 06:41:12;;;;;;;;;;;;;;;;;;5055609;28;1969;-70
2022/04/09 06:43:41;;;;;;;;;;;;;;;;;;5051176;28;1570;-70
2022/04/09 06:46:16;;;;;;;;;;;;;;;;;;5050571;28;1316;-70
2022/04/09 06:48:42;;;;;;;;;;;;;;;;;;5068164;28;1546;-70
2022/04/09 06:51:29;;;;;;;;;;;;;;;;;;5069645;28;1739;-71
2022/04/09 06:54:15;;;;;;;;;;;;;;;;;;5031164;28;1204;-70
2022/04/09 06:56:44;;;;;;;;;;;;;;;;;;5042523;28;1539;-70
2022/04/09 06:59:10;;;;;;;;;;;;;;;;;;5051681;28;1683;-68
2022/04/09 07:01:39;;;;;;;;;;;;;;;;;;5050767;28;1910;-69
2022/04/09 07:04:05;;;;;;;;;;;;;;;;;;5051598;28;1558;-69
2022/04/09 07:06:32;;;;;;;;;;;;;;;;;;5070766;28;1100;-69
2022/04/09 07:08:58;;;;;;;;;;;;;;;;;;5070396;28;1617;-69
2022/04/09 07:11:24;;;;;;;;;;;;;;;;;;5069930;28;1569;-69
2022/04/09 07:13:51;;;;;;;;;;;;;;;;;;5070186;28;1583;-69
2022/04/09 07:16:17;;;;;;;;;;;;;;;;;;5070398;28;1064;-69
2022/04/09 07:18:44;;;;;;;;;;;;;;;;;;5069858;28;1624;-68
2022/04/09 07:21:11;;;;;;;;;;;;;;;;;;5049919;28;1918;-68
2022/04/09 07:23:37;;;;;;;;;;;;;;;;;;5064056;28;1622;-68
2022/04/09 07:26:03;;;;;;;;;;;;;;;;;;5070104;28;1630;-68
2022/04/09 07:28:29;;;;;;;;;;;;;;;;;;5069330;28;1562;-68
2022/04/09 07:30:55;;;;;;;;;;;;;;;;;;5069991;28;1411;-69
2022/04/09 07:33:22;;;;;;;;;;;;;;;;;;5070001;28;1590;-69
2022/04/09 07:35:49;;;;;;;;;;;;;;;;;;5069635;28;1079;-69
2022/04/09 07:38:15;;;;;;;;;;;;;;;;;;5069246;28;1589;-68
2022/04/09 07:40:42;;;;;;;;;;;;;;;;;;5069881;28;1918;-67
2022/04/09 07:43:08;;;;;;;;;;;;;;;;;;5072486;28;1625;-68
2022/04/09 07:45:34;;;;;;;;;;;;;;;;;;5073959;28;786;-67
2022/04/09 07:48:01;;;;;;;;;;;;;;;;;;5073940;28;814;-68
2022/04/09 07:50:27;;;;;;;;;;;;;;;;;;5073872;28;1325;-68
2022/04/09 07:52:55;;;;;;;;;;;;;;;;;;5074055;28;972;-68
2022/04/09 07:55:22;;;;;;;;;;;;;;;;;;5073780;28;786;-68
2022/04/09 07:57:50;;;;;;;;;;;;;;;;;;5073663;28;1090;-67
2022/04/09 08:00:17;;;;;;;;;;;;;;;;;;5073754;28;1922;-68
2022/04/09 08:02:43;;;;;;;;;;;;;;;;;;5073743;28;1110;-68
2022/04/09 08:05:10;;;;;;;;;;;;;;;;;;5073853;28;1068;-69
2022/04/09 08:07:36;;;;;;;;;;;;;;;;;;5073837;28;763;-68
2022/04/09 08:10:04;;;;;;;;;;;;;;;;;;5074246;28;1318;-69
2022/04/09 08:12:30;;;;;;;;;;;;;;;;;;5073477;28;771;-69
2022/04/09 08:14:57;;;;;;;;;;;;;;;;;;5073182;28;1275;-70
2022/04/09 08:17:23;;;;;;;;;;;;;;;;;;5072922;28;1523;-70
2022/04/09 08:19:49;;;;;;;;;;;;;;;;;;5072846;28;1493;-70
2022/04/09 08:22:16;;;;;;;;;;;;;;;;;;5073204;28;1972;-71
2022/04/09 08:24:43;;;;;;;;;;;;;;;;;;5073341;28;1274;-70
2022/04/09 08:27:10;;;;;;;;;;;;;;;;;;5073099;28;1060;-70
2022/04/09 08:29:36;;;;;;;;;;;;;;;;;;5071577;28;1413;-70
2022/04/09 08:32:04;;;;;;;;;;;;;;;;;;5073371;28;1079;-70
2022/04/09 08:34:31;;;;;;;;;;;;;;;;;;5073582;28;874;-71
2022/04/09 08:36:57;;;;;;;;;;;;;;;;;;5073023;28;1067;-70
2022/04/09 08:39:23;;;;;;;;;;;;;;;;;;5073416;28;1324;-71
2022/04/09 08:41:49;;;;;;;;;;;;;;;;;;5072525;28;1911;-70
2022/04/09 08:44:18;;;;;;;;;;;;;;;;;;5072919;28;1266;-70
2022/04/09 08:46:44;;;;;;;;;;;;;;;;;;5073519;28;1060;-70
2022/04/09 08:49:10;;;;;;;;;;;;;;;;;;5071418;28;1550;-70
2022/04/09 08:51:37;;;;;;;;;;;;;;;;;;5089643;28;1114;-69
2022/04/09 08:54:04;;;;;;;;;;;;;;;;;;5091777;28;953;-70
2022/04/09 08:56:31;;;;;;;;;;;;;;;;;;5092652;28;1126;-70
2022/04/09 08:58:57;;;;;;;;;;;;;;;;;;5090578;28;1166;-69
2022/04/09 09:01:25;;;;;;;;;;;;;;;;;;5072972;28;1918;-70
2022/04/09 09:03:51;;;;;;;;;;;;;;;;;;5071576;28;803;-71
2022/04/09 09:06:25;;;;;;;;;;;;;;;;;;5071106;28;878;-71
2022/04/09 09:08:51;;;;;;;;;;;;;;;;;;5072830;28;1063;-71
2022/04/09 09:11:19;;;;;;;;;;;;;;;;;;5072570;28;1343;-71
2022/04/09 09:13:45;;;;;;;;;;;;;;;;;;5071782;28;948;-71
2022/04/09 09:16:12;;;;;;;;;;;;;;;;;;5069498;28;1424;-71
2022/04/09 09:18:39;;;;;;;;;;;;;;;;;;5071939;28;972;-70
2022/04/09 09:21:06;;;;;;;;;;;;;;;;;;5071789;28;1913;-71
2022/04/09 09:23:33;;;;;;;;;;;;;;;;;;5071999;28;877;-70
2022/04/09 09:26:00;;;;;;;;;;;;;;;;;;5071185;28;1209;-69
2022/04/09 09:28:26;;;;;;;;;;;;;;;;;;5072223;28;766;-70
2022/04/09 09:30:53;;;;;;;;;;;;;;;;;;5072364;28;1373;-69
2022/04/09 09:33:20;;;;;;;;;;;;;;;;;;5071890;28;944;-69
2022/04/09 09:35:51;;;;;;;;;;;;;;;;;;5072171;28;809;-70
2022/04/09 09:38:17;;;;;;;;;;;;;;;;;;5071813;28;1099;-71
2022/04/09 09:40:44;;;;;;;;;;;;;;;;;;5071919;28;1382;-71
2022/04/09 09:43:16;;;;;;;;;;;;;;;;;;5072083;28;1970;-71
2022/04/09 09:45:42;;;;;;;;;;;;;;;;;;5072240;28;1083;-71
2022/04/09 09:48:19;;;;;;;;;;;;;;;;;;5072174;28;1119;-71
2022/04/09 09:50:45;;;;;;;;;;;;;;;;;;5071940;28;1422;-71
2022/04/09 09:53:12;;;;;;;;;;;;;;;;;;5072284;28;1006;-71
2022/04/09 09:55:41;;;;;;;;;;;;;;;;;;5071735;28;992;-70
2022/04/09 09:58:07;;;;;;;;;;;;;;;;;;5071640;28;1067;-71
2022/04/09 10:00:33;;;;;;;;;;;;;;;;;;5071524;28;1341;-70
2022/04/09 10:03:00;;;;;;;;;;;;;;;;;;5071830;28;1973;-71
2022/04/09 10:05:26;;;;;;;;;;;;;;;;;;5071404;28;782;-71
2022/04/09 10:07:52;;;;;;;;;;;;;;;;;;5071413;28;1068;-70
2022/04/09 10:10:22;;;;;;;;;;;;;;;;;;5071358;28;1318;-70
2022/04/09 10:12:48;;;;;;;;;;;;;;;;;;5071133;28;1479;-70
2022/04/09 10:15:14;;;;;;;;;;;;;;;;;;5071168;28;1468;-70
2022/04/09 10:17:41;;;;;;;;;;;;;;;;;;5071550;28;1055;-70
2022/04/09 10:20:08;;;;;;;;;;;;;;;;;;5070844;28;1395;-72
2022/04/09 10:22:35;;;;;;;;;;;;;;;;;;5071379;28;1919;-70
2022/04/09 10:25:03;;;;;;;;;;;;;;;;;;5071056;28;1021;-72
2022/04/09 10:27:40;;;;;;;;;;;;;;;;;;5070864;28;1108;-70
2022/04/09 10:30:28;;;;;;;;;;;;;;;;;;5070613;28;1327;-70
2022/04/09 10:32:57;;;;;;;;;;;;;;;;;;5065467;28;1562;-71
2022/04/09 10:35:27;;;;;;;;;;;;;;;;;;5070569;28;1590;-72
2022/04/09 10:38:12;;;;;;;;;;;;;;;;;;5070361;28;1637;-70
2022/04/09 10:40:59;;;;;;;;;;;;;;;;;;5069630;28;1669;-71
2022/04/09 10:43:39;;;;;;;;;;;;;;;;;;5070113;28;1918;-71
2022/04/09 10:46:20;;;;;;;;;;;;;;;;;;5070349;28;1056;-75
2022/04/09 10:48:48;;;;;;;;;;;;;;;;;;5070744;28;1578;-70
2022/04/09 10:51:14;;;;;;;;;;;;;;;;;;5070225;28;1312;-70
2022/04/09 10:53:41;;;;;;;;;;;;;;;;;;5069960;28;1593;-69
2022/04/09 10:56:10;;;;;;;;;;;;;;;;;;5070319;28;1129;-72
2022/04/09 10:58:52;;;;;;;;;;;;;;;;;;5070360;28;1597;-70
2022/04/09 11:01:33;;;;;;;;;;;;;;;;;;5069342;28;1914;-72
2022/04/09 11:04:02;;;;;;;;;;;;;;;;;;5069327;28;1672;-70
2022/04/09 11:06:43;;;;;;;;;;;;;;;;;;5051512;28;1732;-70
2022/04/09 11:09:09;;;;;;;;;;;;;;;;;;5070247;28;1645;-70
2022/04/09 11:11:37;;;;;;;;;;;;;;;;;;5070159;28;1618;-69
2022/04/09 11:14:03;;;;;;;;;;;;;;;;;;5065488;22;3684;-66
2022/04/09 11:16:34;;;;;;;;;;;;;;;;;;5040951;28;2157;-68
2022/04/09 11:19:01;;;;;;;;;;;;;;;;;;5039026;28;1741;-68
2022/04/09 11:21:28;;;;;;;;;;;;;;;;;;5050665;28;1982;-68
2022/04/09 11:24:03;;;;;;;;;;;;;;;;;;5050392;28;1641;-69
2022/04/09 11:26:30;;;;;;;;;;;;;;;;;;5050311;28;834;-69
2022/04/09 11:28:56;;;;;;;;;;;;;;;;;;5032898;28;1645;-69
2022/04/09 11:31:22;;;;;;;;;;;;;;;;;;5041922;28;2018;-69
2022/04/09 11:33:55;;;;;;;;;;;;;;;;;;5050296;28;1479;-69
2022/04/09 11:36:23;;;;;;;;;;;;;;;;;;5050518;28;1283;-69
2022/04/09 11:38:49;;;;;;;;;;;;;;;;;;5050744;28;1574;-66
2022/04/09 11:41:18;;;;;;;;;;;;;;;;;;5048659;28;1780;-68
2022/04/09 11:43:46;;;;;;;;;;;;;;;;;;5049931;28;1914;-69
2022/04/09 11:46:12;;;;;;;;;;;;;;;;;;5050025;28;1439;-68
2022/04/09 11:48:38;;;;;;;;;;;;;;;;;;5049257;28;2074;-69
2022/04/09 11:51:04;;;;;;;;;;;;;;;;;;5050483;28;1125;-70
2022/04/09 11:53:34;;;;;;;;;;;;;;;;;;5048515;28;2007;-69
2022/04/09 11:56:00;;;;;;;;;;;;;;;;;;5050050;28;1106;-69
2022/04/09 11:58:30;;;;;;;;;;;;;;;;;;5050005;28;1598;-69
2022/04/09 12:00:57;;;;;;;;;;;;;;;;;;5032703;28;1571;-70
2022/04/09 12:03:23;;;;;;;;;;;;;;;;;;5037526;28;1975;-69
2022/04/09 12:05:51;;;;;;;;;;;;;;;;;;5048228;28;1975;-68
2022/04/09 12:08:17;;;;;;;;;;;;;;;;;;5035356;28;1627;-69
2022/04/09 12:10:52;;;;;;;;;;;;;;;;;;5035256;28;1347;-67
2022/04/09 12:13:23;;;;;;;;;;;;;;;;;;5042212;28;1416;-68
2022/04/09 12:15:50;;;;;;;;;;;;;;;;;;5033454;28;1254;-68
2022/04/09 12:18:25;;;;;;;;;;;;;;;;;;5042706;28;1781;-69
2022/04/09 12:20:51;;;;;;;;;;;;;;;;;;5041690;28;1331;-68
2022/04/09 12:23:28;;;;;;;;;;;;;;;;;;5041970;28;2043;-69
2022/04/09 12:25:55;;;;;;;;;;;;;;;;;;5049842;28;1591;-68
2022/04/09 12:28:22;;;;;;;;;;;;;;;;;;5051248;28;1527;-68
2022/04/09 12:30:49;;;;;;;;;;;;;;;;;;5035184;28;1594;-68
2022/04/09 12:33:15;;;;;;;;;;;;;;;;;;5052943;28;1610;-67
2022/04/09 12:35:42;;;;;;;;;;;;;;;;;;5053432;28;1060;-69
2022/04/09 12:38:08;;;;;;;;;;;;;;;;;;5033498;28;1523;-69
2022/04/09 12:40:35;;;;;;;;;;;;;;;;;;5053049;28;1622;-69
2022/04/09 12:43:03;;;;;;;;;;;;;;;;;;5052659;28;1970;-68
2022/04/09 12:45:29;;;;;;;;;;;;;;;;;;5053369;28;1119;-68
2022/04/09 12:47:56;;;;;;;;;;;;;;;;;;5052704;28;1546;-69
2022/04/09 12:50:24;;;;;;;;;;;;;;;;;;5052479;28;1547;-70
2022/04/09 12:52:50;;;;;;;;;;;;;;;;;;5035167;28;1555;-69
2022/04/09 12:55:18;;;;;;;;;;;;;;;;;;5052999;28;953;-69
2022/04/09 12:57:44;;;;;;;;;;;;;;;;;;5033996;28;1932;-70
2022/04/09 13:00:12;;;;;;;;;;;;;;;;;;5053101;28;1058;-68
2022/04/09 13:02:40;;;;;;;;;;;;;;;;;;5052361;28;1985;-68
2022/04/09 13:05:07;;;;;;;;;;;;;;;;;;5052651;28;1594;-67
2022/04/09 13:07:33;;;;;;;;;;;;;;;;;;5052626;28;1048;-69
2022/04/09 13:09:59;;;;;;;;;;;;;;;;;;5053013;28;786;-69
2022/04/09 13:12:25;;;;;;;;;;;;;;;;;;5051957;28;2011;-69
2022/04/09 13:14:52;;;;;;;;;;;;;;;;;;5051696;28;1685;-68
2022/04/09 13:17:19;;;;;;;;;;;;;;;;;;5050379;28;1528;-69
2022/04/09 13:19:47;;;;;;;;;;;;;;;;;;5051835;28;1836;-68
2022/04/09 13:22:15;;;;;;;;;;;;;;;;;;5031474;28;1922;-68
2022/04/09 13:24:41;;;;;;;;;;;;;;;;;;5052396;28;1267;-68
2022/04/09 13:27:08;;;;;;;;;;;;;;;;;;5049805;28;1856;-68
2022/04/09 13:29:34;;;;;;;;;;;;;;;;;;5051081;28;1711;-68
2022/04/09 13:32:00;;;;;;;;;;;;;;;;;;5033538;28;2217;-68
2022/04/09 13:34:28;;;;;;;;;;;;;;;;;;5032739;28;1841;-67
2022/04/09 13:36:54;;;;;;;;;;;;;;;;;;5049757;28;2320;-68
2022/04/09 13:39:20;;;;;;;;;;;;;;;;;;5050415;28;1714;-68
2022/04/09 13:41:46;;;;;;;;;;;;;;;;;;5033619;28;1187;-68
2022/04/09 13:44:12;;;;;;;;;;;;;;;;;;5050763;28;2051;-68
2022/04/09 13:46:39;;;;;;;;;;;;;;;;;;5049916;28;1798;-68
2022/04/09 13:49:05;;;;;;;;;;;;;;;;;;5050961;28;1793;-68
2022/04/09 13:51:32;;;;;;;;;;;;;;;;;;5048658;28;2014;-69
2022/04/09 13:53:59;;;;;;;;;;;;;;;;;;5049345;28;1899;-69
2022/04/09 13:56:25;;;;;;;;;;;;;;;;;;5047698;28;1756;-69
2022/04/09 13:58:51;;;;;;;;;;;;;;;;;;5048308;28;1824;-68
2022/04/09 14:01:17;;;;;;;;;;;;;;;;;;5050330;28;2287;-68
2022/04/09 14:03:43;;;;;;;;;;;;;;;;;;5050783;28;2050;-68
2022/04/09 14:06:10;;;;;;;;;;;;;;;;;;5050271;28;1840;-68
2022/04/09 14:08:37;;;;;;;;;;;;;;;;;;5051805;28;1116;-68
2022/04/09 14:11:04;;;;;;;;;;;;;;;;;;5051535;28;718;-67
2022/04/09 14:13:30;;;;;;;;;;;;;;;;;;5031466;28;1543;-67
2022/04/09 14:15:56;;;;;;;;;;;;;;;;;;5048022;28;2049;-67
2022/04/09 14:18:22;;;;;;;;;;;;;;;;;;5049007;28;1764;-67
2022/04/09 14:20:49;;;;;;;;;;;;;;;;;;5046443;28;2097;-66
2022/04/09 14:23:15;;;;;;;;;;;;;;;;;;5049631;28;1967;-68
2022/04/09 14:25:42;;;;;;;;;;;;;;;;;;5050528;28;1428;-67
2022/04/09 14:28:11;;;;;;;;;;;;;;;;;;5050299;28;1515;-68
2022/04/09 14:30:39;;;;;;;;;;;;;;;;;;5050506;28;1801;-67
2022/04/09 14:33:06;;;;;;;;;;;;;;;;;;5050452;28;1598;-68
2022/04/09 14:35:32;;;;;;;;;;;;;;;;;;5050848;28;1431;-68
2022/04/09 14:37:58;;;;;;;;;;;;;;;;;;5050321;28;1484;-68
2022/04/09 14:40:24;;;;;;;;;;;;;;;;;;5049700;28;1446;-68
2022/04/09 14:42:56;;;;;;;;;;;;;;;;;;5050932;28;1977;-68
2022/04/09 14:45:22;;;;;;;;;;;;;;;;;;5040548;28;1771;-68
2022/04/09 14:47:49;;;;;;;;;;;;;;;;;;5051742;28;1064;-67
2022/04/09 14:50:15;;;;;;;;;;;;;;;;;;5022830;28;1996;-67
2022/04/09 14:52:43;;;;;;;;;;;;;;;;;;5029787;28;1400;-68
2022/04/09 14:55:09;;;;;;;;;;;;;;;;;;5013167;28;1609;-67
2022/04/09 14:57:36;;;;;;;;;;;;;;;;;;5030475;28;1185;-67
2022/04/09 15:00:04;;;;;;;;;;;;;;;;;;5012742;28;1162;-67
2022/04/09 15:02:30;;;;;;;;;;;;;;;;;;5040403;28;1918;-67
2022/04/09 15:04:57;;;;;;;;;;;;;;;;;;5030582;28;1499;-68
2022/04/09 15:07:24;;;;;;;;;;;;;;;;;;5037121;28;1602;-68
2022/04/09 15:09:51;;;;;;;;;;;;;;;;;;5050365;28;910;-69
2022/04/09 15:12:17;;;;;;;;;;;;;;;;;;5050143;28;1570;-68
2022/04/09 15:14:43;;;;;;;;;;;;;;;;;;5050255;28;1367;-68
2022/04/09 15:17:11;;;;;;;;;;;;;;;;;;5032396;28;1285;-68
2022/04/09 15:19:37;;;;;;;;;;;;;;;;;;5050095;28;1184;-68
2022/04/09 15:22:04;;;;;;;;;;;;;;;;;;5050634;28;815;-68
2022/04/09 15:24:31;;;;;;;;;;;;;;;;;;5050105;28;1918;-68
2022/04/09 15:26:57;;;;;;;;;;;;;;;;;;5050868;28;894;-68
2022/04/09 15:29:25;;;;;;;;;;;;;;;;;;5032603;28;1290;-68
2022/04/09 15:31:51;;;;;;;;;;;;;;;;;;5050970;28;1029;-69
2022/04/09 15:34:18;;;;;;;;;;;;;;;;;;5050136;28;1257;-69
2022/04/09 15:36:45;;;;;;;;;;;;;;;;;;5050034;28;1083;-68
2022/04/09 15:39:11;;;;;;;;;;;;;;;;;;5032083;28;1397;-68
2022/04/09 15:41:37;;;;;;;;;;;;;;;;;;5049922;28;937;-68
2022/04/09 15:44:04;;;;;;;;;;;;;;;;;;5050167;28;2001;-68
2022/04/09 15:46:30;;;;;;;;;;;;;;;;;;5049802;28;1075;-67
2022/04/09 15:48:56;;;;;;;;;;;;;;;;;;5049909;28;1107;-68
2022/04/09 15:51:24;;;;;;;;;;;;;;;;;;5050113;28;802;-68
2022/04/09 15:53:50;;;;;;;;;;;;;;;;;;5050140;28;1429;-68
2022/04/09 15:56:16;;;;;;;;;;;;;;;;;;5050125;28;937;-68
2022/04/09 15:58:43;;;;;;;;;;;;;;;;;;5049709;28;727;-68
2022/04/09 16:01:09;;;;;;;;;;;;;;;;;;5032247;28;1810;-68
2022/04/09 16:03:36;;;;;;;;;;;;;;;;;;5050091;28;1914;-67
2022/04/09 16:06:03;;;;;;;;;;;;;;;;;;5051878;28;1669;-68
2022/04/09 16:08:30;;;;;;;;;;;;;;;;;;5045527;28;1582;-69
2022/04/09 16:10:57;;;;;;;;;;;;;;;;;;5050118;28;1653;-69
2022/04/09 16:13:23;;;;;;;;;;;;;;;;;;5051172;28;1578;-69
2022/04/09 16:15:49;;;;;;;;;;;;;;;;;;5049553;28;1072;-69
2022/04/09 16:18:15;;;;;;;;;;;;;;;;;;5050286;28;1562;-68
2022/04/09 16:20:42;;;;;;;;;;;;;;;;;;5050087;28;1606;-69
2022/04/09 16:23:08;;;;;;;;;;;;;;;;;;5050800;28;2013;-68
2022/04/09 16:25:36;;;;;;;;;;;;;;;;;;5032950;28;1570;-70
2022/04/09 16:28:02;;;;;;;;;;;;;;;;;;5050503;28;1609;-69
2022/04/09 16:30:30;;;;;;;;;;;;;;;;;;5051165;28;1415;-68
2022/04/09 16:32:56;;;;;;;;;;;;;;;;;;5051305;28;1360;-69
2022/04/09 16:35:23;;;;;;;;;;;;;;;;;;5032593;28;1368;-68
2022/04/09 16:37:49;;;;;;;;;;;;;;;;;;5049615;28;1653;-69
2022/04/09 16:40:15;;;;;;;;;;;;;;;;;;5050689;28;1559;-68
2022/04/09 16:42:43;;;;;;;;;;;;;;;;;;5050236;28;1625;-68
2022/04/09 16:45:10;;;;;;;;;;;;;;;;;;5050662;28;1922;-68
2022/04/09 16:47:36;;;;;;;;;;;;;;;;;;5049983;28;1559;-68
2022/04/09 16:50:03;;;;;;;;;;;;;;;;;;5049998;28;1621;-67
2022/04/09 16:52:29;;;;;;;;;;;;;;;;;;5049969;28;1543;-68
2022/04/09 16:54:55;;;;;;;;;;;;;;;;;;5047183;28;1551;-68
2022/04/09 16:57:21;;;;;;;;;;;;;;;;;;5050004;28;1618;-68
2022/04/09 16:59:49;;;;;;;;;;;;;;;;;;5050465;28;1551;-68
2022/04/09 17:02:15;;;;;;;;;;;;;;;;;;5050433;28;1131;-68
2022/04/09 17:04:41;;;;;;;;;;;;;;;;;;5049961;28;1914;-68
2022/04/09 17:07:07;;;;;;;;;;;;;;;;;;5050216;28;1221;-69
2022/04/09 17:09:33;;;;;;;;;;;;;;;;;;5046842;28;1602;-69